sensor_id;sensor_type;location;lat;lon;timestamp;P1;durP1;ratioP1;P2;durP2;ratioP2
17592;SDS011;8915;51.760;14.300;2022-08-19T00:01:33;8.10;;;6.33;;
17592;SDS011;8915;51.760;14.300;2022-08-19T00:04:02;7.47;;;6.27;;
17592;SDS011;8915;51.760;14.300;2022-08-19T00:06:31;7.83;;;5.83;;
17592;SDS011;8915;51.760;14.300;2022-08-19T00:08:58;7.57;;;6.00;;
17592;SDS011;8915;51.760;14.300;2022-08-19T00:11:25;10.67;;;6.43;;
17592;SDS011;8915;51.760;14.300;2022-08-19T00:13:54;8.20;;;6.63;;
17592;SDS011;8915;51.760;14.300;2022-08-19T00:16:21;7.07;;;6.10;;
17592;SDS011;8915;51.760;14.300;2022-08-19T00:18:50;8.17;;;6.27;;
17592;SDS011;8915;51.760;14.300;2022-08-19T00:21:16;8.43;;;6.70;;
17592;SDS011;8915;51.760;14.300;2022-08-19T00:23:43;8.63;;;6.80;;
17592;SDS011;8915;51.760;14.300;2022-08-19T00:26:09;7.37;;;6.10;;
17592;SDS011;8915;51.760;14.300;2022-08-19T00:28:37;7.80;;;6.27;;
17592;SDS011;8915;51.760;14.300;2022-08-19T00:31:05;8.43;;;6.63;;
17592;SDS011;8915;51.760;14.300;2022-08-19T00:33:33;8.27;;;6.60;;
17592;SDS011;8915;51.760;14.300;2022-08-19T00:36:00;9.03;;;6.67;;
17592;SDS011;8915;51.760;14.300;2022-08-19T00:38:31;8.43;;;6.67;;
17592;SDS011;8915;51.760;14.300;2022-08-19T00:40:59;10.17;;;6.43;;
17592;SDS011;8915;51.760;14.300;2022-08-19T00:43:26;10.87;;;6.50;;
17592;SDS011;8915;51.760;14.300;2022-08-19T00:45:54;7.93;;;6.70;;
17592;SDS011;8915;51.760;14.300;2022-08-19T00:48:22;7.37;;;6.13;;
17592;SDS011;8915;51.760;14.300;2022-08-19T00:50:49;8.20;;;6.77;;
17592;SDS011;8915;51.760;14.300;2022-08-19T00:53:19;10.03;;;6.50;;
17592;SDS011;8915;51.760;14.300;2022-08-19T00:55:48;11.33;;;7.00;;
17592;SDS011;8915;51.760;14.300;2022-08-19T00:58:19;10.07;;;7.70;;
17592;SDS011;8915;51.760;14.300;2022-08-19T01:00:48;10.63;;;7.10;;
17592;SDS011;8915;51.760;14.300;2022-08-19T01:03:15;8.93;;;6.87;;
17592;SDS011;8915;51.760;14.300;2022-08-19T01:05:45;9.17;;;7.30;;
17592;SDS011;8915;51.760;14.300;2022-08-19T01:08:15;9.90;;;7.50;;
17592;SDS011;8915;51.760;14.300;2022-08-19T01:10:43;8.97;;;6.97;;
17592;SDS011;8915;51.760;14.300;2022-08-19T01:13:13;9.00;;;7.07;;
17592;SDS011;8915;51.760;14.300;2022-08-19T01:15:42;10.40;;;7.23;;
17592;SDS011;8915;51.760;14.300;2022-08-19T01:18:11;8.60;;;6.33;;
17592;SDS011;8915;51.760;14.300;2022-08-19T01:20:40;10.97;;;7.00;;
17592;SDS011;8915;51.760;14.300;2022-08-19T01:23:09;9.27;;;7.20;;
17592;SDS011;8915;51.760;14.300;2022-08-19T01:25:39;8.07;;;6.53;;
17592;SDS011;8915;51.760;14.300;2022-08-19T01:28:14;9.17;;;7.43;;
17592;SDS011;8915;51.760;14.300;2022-08-19T01:30:43;9.37;;;7.27;;
17592;SDS011;8915;51.760;14.300;2022-08-19T01:33:10;8.87;;;7.00;;
17592;SDS011;8915;51.760;14.300;2022-08-19T01:35:36;9.93;;;7.30;;
17592;SDS011;8915;51.760;14.300;2022-08-19T01:38:04;9.03;;;7.30;;
17592;SDS011;8915;51.760;14.300;2022-08-19T01:40:35;9.27;;;7.20;;
17592;SDS011;8915;51.760;14.300;2022-08-19T01:43:03;10.20;;;7.70;;
17592;SDS011;8915;51.760;14.300;2022-08-19T01:45:31;9.03;;;7.00;;
17592;SDS011;8915;51.760;14.300;2022-08-19T01:47:59;9.83;;;8.13;;
17592;SDS011;8915;51.760;14.300;2022-08-19T01:50:26;8.97;;;7.13;;
17592;SDS011;8915;51.760;14.300;2022-08-19T01:52:53;8.73;;;7.00;;
17592;SDS011;8915;51.760;14.300;2022-08-19T01:55:20;9.50;;;7.27;;
17592;SDS011;8915;51.760;14.300;2022-08-19T01:57:50;8.03;;;7.13;;
17592;SDS011;8915;51.760;14.300;2022-08-19T02:00:20;10.17;;;7.43;;
17592;SDS011;8915;51.760;14.300;2022-08-19T02:02:49;10.57;;;7.23;;
17592;SDS011;8915;51.760;14.300;2022-08-19T02:05:16;12.87;;;7.97;;
17592;SDS011;8915;51.760;14.300;2022-08-19T02:07:46;8.77;;;7.63;;
17592;SDS011;8915;51.760;14.300;2022-08-19T02:10:13;9.60;;;7.50;;
17592;SDS011;8915;51.760;14.300;2022-08-19T02:12:42;10.23;;;7.43;;
17592;SDS011;8915;51.760;14.300;2022-08-19T02:15:10;9.10;;;6.90;;
17592;SDS011;8915;51.760;14.300;2022-08-19T02:17:37;10.00;;;7.60;;
17592;SDS011;8915;51.760;14.300;2022-08-19T02:20:05;9.40;;;7.37;;
17592;SDS011;8915;51.760;14.300;2022-08-19T02:22:33;10.23;;;8.20;;
17592;SDS011;8915;51.760;14.300;2022-08-19T02:25:00;10.50;;;7.37;;
17592;SDS011;8915;51.760;14.300;2022-08-19T02:27:27;11.73;;;8.03;;
17592;SDS011;8915;51.760;14.300;2022-08-19T02:29:54;9.80;;;7.57;;
17592;SDS011;8915;51.760;14.300;2022-08-19T02:32:21;10.40;;;8.20;;
17592;SDS011;8915;51.760;14.300;2022-08-19T02:34:48;10.93;;;8.20;;
17592;SDS011;8915;51.760;14.300;2022-08-19T02:37:14;9.93;;;7.97;;
17592;SDS011;8915;51.760;14.300;2022-08-19T02:39:54;10.20;;;7.97;;
17592;SDS011;8915;51.760;14.300;2022-08-19T02:42:21;10.70;;;8.27;;
17592;SDS011;8915;51.760;14.300;2022-08-19T02:44:48;10.20;;;7.60;;
17592;SDS011;8915;51.760;14.300;2022-08-19T02:47:14;13.03;;;8.30;;
17592;SDS011;8915;51.760;14.300;2022-08-19T02:49:42;11.50;;;8.40;;
17592;SDS011;8915;51.760;14.300;2022-08-19T02:52:08;11.97;;;8.43;;
17592;SDS011;8915;51.760;14.300;2022-08-19T02:54:36;10.20;;;7.87;;
17592;SDS011;8915;51.760;14.300;2022-08-19T02:57:03;9.27;;;7.73;;
17592;SDS011;8915;51.760;14.300;2022-08-19T02:59:30;13.80;;;8.57;;
17592;SDS011;8915;51.760;14.300;2022-08-19T03:01:57;10.23;;;8.10;;
17592;SDS011;8915;51.760;14.300;2022-08-19T03:04:23;8.87;;;7.60;;
17592;SDS011;8915;51.760;14.300;2022-08-19T03:06:51;11.20;;;8.00;;
17592;SDS011;8915;51.760;14.300;2022-08-19T03:09:18;10.67;;;7.43;;
17592;SDS011;8915;51.760;14.300;2022-08-19T03:11:46;11.13;;;7.80;;
17592;SDS011;8915;51.760;14.300;2022-08-19T03:14:12;10.57;;;8.10;;
17592;SDS011;8915;51.760;14.300;2022-08-19T03:16:41;12.53;;;8.83;;
17592;SDS011;8915;51.760;14.300;2022-08-19T03:19:09;11.27;;;8.30;;
17592;SDS011;8915;51.760;14.300;2022-08-19T03:21:36;9.80;;;7.97;;
17592;SDS011;8915;51.760;14.300;2022-08-19T03:24:05;11.30;;;8.00;;
17592;SDS011;8915;51.760;14.300;2022-08-19T03:26:33;11.50;;;8.33;;
17592;SDS011;8915;51.760;14.300;2022-08-19T03:29:01;11.47;;;8.37;;
17592;SDS011;8915;51.760;14.300;2022-08-19T03:31:28;9.93;;;8.07;;
17592;SDS011;8915;51.760;14.300;2022-08-19T03:33:56;11.77;;;8.57;;
17592;SDS011;8915;51.760;14.300;2022-08-19T03:36:23;11.97;;;8.80;;
17592;SDS011;8915;51.760;14.300;2022-08-19T03:38:52;11.60;;;9.30;;
17592;SDS011;8915;51.760;14.300;2022-08-19T03:41:22;10.43;;;8.10;;
17592;SDS011;8915;51.760;14.300;2022-08-19T03:43:51;10.43;;;8.50;;
17592;SDS011;8915;51.760;14.300;2022-08-19T03:46:19;11.20;;;8.30;;
17592;SDS011;8915;51.760;14.300;2022-08-19T03:48:48;11.67;;;8.23;;
17592;SDS011;8915;51.760;14.300;2022-08-19T03:51:19;11.10;;;8.00;;
17592;SDS011;8915;51.760;14.300;2022-08-19T03:53:47;11.37;;;8.40;;
17592;SDS011;8915;51.760;14.300;2022-08-19T03:56:14;11.07;;;8.30;;
17592;SDS011;8915;51.760;14.300;2022-08-19T03:58:43;11.07;;;7.97;;
17592;SDS011;8915;51.760;14.300;2022-08-19T04:01:11;12.27;;;7.73;;
17592;SDS011;8915;51.760;14.300;2022-08-19T04:03:39;10.77;;;8.33;;
17592;SDS011;8915;51.760;14.300;2022-08-19T04:06:09;11.57;;;8.47;;
17592;SDS011;8915;51.760;14.300;2022-08-19T04:08:37;11.57;;;8.47;;
17592;SDS011;8915;51.760;14.300;2022-08-19T04:11:06;10.40;;;7.47;;
17592;SDS011;8915;51.760;14.300;2022-08-19T04:13:33;11.00;;;8.50;;
17592;SDS011;8915;51.760;14.300;2022-08-19T04:16:01;10.87;;;8.33;;
17592;SDS011;8915;51.760;14.300;2022-08-19T04:18:28;11.17;;;8.23;;
17592;SDS011;8915;51.760;14.300;2022-08-19T04:20:56;9.97;;;8.03;;
17592;SDS011;8915;51.760;14.300;2022-08-19T04:23:23;11.80;;;8.07;;
17592;SDS011;8915;51.760;14.300;2022-08-19T04:25:49;12.20;;;7.70;;
17592;SDS011;8915;51.760;14.300;2022-08-19T04:28:16;14.47;;;8.53;;
17592;SDS011;8915;51.760;14.300;2022-08-19T04:30:43;10.60;;;7.97;;
17592;SDS011;8915;51.760;14.300;2022-08-19T04:33:14;10.97;;;7.87;;
17592;SDS011;8915;51.760;14.300;2022-08-19T04:35:44;10.37;;;7.80;;
17592;SDS011;8915;51.760;14.300;2022-08-19T04:38:13;10.60;;;7.83;;
17592;SDS011;8915;51.760;14.300;2022-08-19T04:40:41;9.67;;;7.97;;
17592;SDS011;8915;51.760;14.300;2022-08-19T04:43:26;11.00;;;7.73;;
17592;SDS011;8915;51.760;14.300;2022-08-19T04:45:53;8.87;;;7.60;;
17592;SDS011;8915;51.760;14.300;2022-08-19T04:48:21;11.03;;;8.53;;
17592;SDS011;8915;51.760;14.300;2022-08-19T04:50:51;10.50;;;7.87;;
17592;SDS011;8915;51.760;14.300;2022-08-19T04:53:22;10.40;;;7.93;;
17592;SDS011;8915;51.760;14.300;2022-08-19T04:55:48;10.83;;;8.00;;
17592;SDS011;8915;51.760;14.300;2022-08-19T04:58:16;11.00;;;8.20;;
17592;SDS011;8915;51.760;14.300;2022-08-19T05:00:42;10.50;;;8.03;;
17592;SDS011;8915;51.760;14.300;2022-08-19T05:03:09;9.33;;;7.43;;
17592;SDS011;8915;51.760;14.300;2022-08-19T05:05:39;10.13;;;7.90;;
17592;SDS011;8915;51.760;14.300;2022-08-19T05:08:06;10.70;;;7.50;;
17592;SDS011;8915;51.760;14.300;2022-08-19T05:10:34;10.13;;;7.97;;
17592;SDS011;8915;51.760;14.300;2022-08-19T05:13:01;10.67;;;7.90;;
17592;SDS011;8915;51.760;14.300;2022-08-19T05:15:27;10.67;;;8.03;;
17592;SDS011;8915;51.760;14.300;2022-08-19T05:17:54;9.40;;;8.00;;
17592;SDS011;8915;51.760;14.300;2022-08-19T05:20:39;10.07;;;7.80;;
17592;SDS011;8915;51.760;14.300;2022-08-19T05:23:23;10.30;;;8.37;;
17592;SDS011;8915;51.760;14.300;2022-08-19T05:25:49;10.17;;;8.07;;
17592;SDS011;8915;51.760;14.300;2022-08-19T05:28:17;12.07;;;8.77;;
17592;SDS011;8915;51.760;14.300;2022-08-19T05:30:44;12.07;;;8.50;;
17592;SDS011;8915;51.760;14.300;2022-08-19T05:33:11;9.93;;;7.90;;
17592;SDS011;8915;51.760;14.300;2022-08-19T05:35:39;10.33;;;8.10;;
17592;SDS011;8915;51.760;14.300;2022-08-19T05:38:06;16.13;;;8.23;;
17592;SDS011;8915;51.760;14.300;2022-08-19T05:40:33;12.07;;;8.30;;
17592;SDS011;8915;51.760;14.300;2022-08-19T05:43:01;10.50;;;8.17;;
17592;SDS011;8915;51.760;14.300;2022-08-19T05:45:27;8.57;;;7.40;;
17592;SDS011;8915;51.760;14.300;2022-08-19T05:47:53;12.63;;;9.13;;
17592;SDS011;8915;51.760;14.300;2022-08-19T05:50:20;12.90;;;8.27;;
17592;SDS011;8915;51.760;14.300;2022-08-19T05:52:48;10.43;;;8.23;;
17592;SDS011;8915;51.760;14.300;2022-08-19T05:55:15;9.87;;;7.97;;
17592;SDS011;8915;51.760;14.300;2022-08-19T05:57:41;10.63;;;7.93;;
17592;SDS011;8915;51.760;14.300;2022-08-19T06:00:08;12.53;;;8.50;;
17592;SDS011;8915;51.760;14.300;2022-08-19T06:02:37;13.17;;;8.97;;
17592;SDS011;8915;51.760;14.300;2022-08-19T06:05:04;10.60;;;8.40;;
17592;SDS011;8915;51.760;14.300;2022-08-19T06:07:33;9.50;;;8.03;;
17592;SDS011;8915;51.760;14.300;2022-08-19T06:10:01;10.43;;;8.57;;
17592;SDS011;8915;51.760;14.300;2022-08-19T06:12:28;12.17;;;8.47;;
17592;SDS011;8915;51.760;14.300;2022-08-19T06:14:58;10.97;;;8.43;;
17592;SDS011;8915;51.760;14.300;2022-08-19T06:17:25;11.97;;;8.17;;
17592;SDS011;8915;51.760;14.300;2022-08-19T06:19:51;10.23;;;8.07;;
17592;SDS011;8915;51.760;14.300;2022-08-19T06:22:18;13.23;;;8.80;;
17592;SDS011;8915;51.760;14.300;2022-08-19T06:24:45;10.30;;;8.10;;
17592;SDS011;8915;51.760;14.300;2022-08-19T06:27:12;11.17;;;8.70;;
17592;SDS011;8915;51.760;14.300;2022-08-19T06:29:40;11.90;;;7.90;;
17592;SDS011;8915;51.760;14.300;2022-08-19T06:32:07;10.20;;;7.90;;
17592;SDS011;8915;51.760;14.300;2022-08-19T06:34:34;10.30;;;8.10;;
17592;SDS011;8915;51.760;14.300;2022-08-19T06:37:01;12.33;;;8.27;;
17592;SDS011;8915;51.760;14.300;2022-08-19T06:39:29;10.13;;;8.27;;
17592;SDS011;8915;51.760;14.300;2022-08-19T06:41:58;11.07;;;7.80;;
17592;SDS011;8915;51.760;14.300;2022-08-19T06:44:30;9.67;;;7.43;;
17592;SDS011;8915;51.760;14.300;2022-08-19T06:47:00;9.90;;;8.03;;
17592;SDS011;8915;51.760;14.300;2022-08-19T06:49:27;11.50;;;8.00;;
17592;SDS011;8915;51.760;14.300;2022-08-19T06:51:56;9.65;;;7.95;;
17592;SDS011;8915;51.760;14.300;2022-08-19T06:54:23;10.52;;;8.63;;
17592;SDS011;8915;51.760;14.300;2022-08-19T06:56:50;10.05;;;8.05;;
17592;SDS011;8915;51.760;14.300;2022-08-19T06:59:18;10.05;;;7.43;;
17592;SDS011;8915;51.760;14.300;2022-08-19T07:01:47;9.43;;;7.90;;
17592;SDS011;8915;51.760;14.300;2022-08-19T07:04:16;11.55;;;8.38;;
17592;SDS011;8915;51.760;14.300;2022-08-19T07:06:43;10.20;;;8.10;;
17592;SDS011;8915;51.760;14.300;2022-08-19T07:09:12;11.35;;;7.72;;
17592;SDS011;8915;51.760;14.300;2022-08-19T07:11:43;8.63;;;7.43;;
17592;SDS011;8915;51.760;14.300;2022-08-19T07:14:11;12.20;;;7.95;;
17592;SDS011;8915;51.760;14.300;2022-08-19T07:16:39;12.45;;;8.65;;
17592;SDS011;8915;51.760;14.300;2022-08-19T07:19:07;10.68;;;8.60;;
17592;SDS011;8915;51.760;14.300;2022-08-19T07:21:34;10.52;;;8.10;;
17592;SDS011;8915;51.760;14.300;2022-08-19T07:24:02;11.05;;;8.27;;
17592;SDS011;8915;51.760;14.300;2022-08-19T07:26:29;10.02;;;7.50;;
17592;SDS011;8915;51.760;14.300;2022-08-19T07:28:57;10.65;;;7.88;;
17592;SDS011;8915;51.760;14.300;2022-08-19T07:31:25;10.48;;;8.48;;
17592;SDS011;8915;51.760;14.300;2022-08-19T07:33:53;11.25;;;8.15;;
17592;SDS011;8915;51.760;14.300;2022-08-19T07:36:24;11.05;;;8.45;;
17592;SDS011;8915;51.760;14.300;2022-08-19T07:38:53;10.10;;;8.55;;
17592;SDS011;8915;51.760;14.300;2022-08-19T07:41:21;11.20;;;8.10;;
17592;SDS011;8915;51.760;14.300;2022-08-19T07:43:49;10.68;;;8.32;;
17592;SDS011;8915;51.760;14.300;2022-08-19T07:46:16;13.95;;;9.32;;
17592;SDS011;8915;51.760;14.300;2022-08-19T07:48:45;11.40;;;8.73;;
17592;SDS011;8915;51.760;14.300;2022-08-19T07:51:14;13.38;;;8.68;;
17592;SDS011;8915;51.760;14.300;2022-08-19T07:53:44;12.93;;;8.68;;
17592;SDS011;8915;51.760;14.300;2022-08-19T07:56:11;10.88;;;8.48;;
17592;SDS011;8915;51.760;14.300;2022-08-19T07:58:41;11.70;;;8.63;;
17592;SDS011;8915;51.760;14.300;2022-08-19T08:01:09;10.77;;;8.48;;
17592;SDS011;8915;51.760;14.300;2022-08-19T08:03:37;10.55;;;8.65;;
17592;SDS011;8915;51.760;14.300;2022-08-19T08:06:17;12.25;;;9.02;;
17592;SDS011;8915;51.760;14.300;2022-08-19T08:09:03;11.77;;;8.77;;
17592;SDS011;8915;51.760;14.300;2022-08-19T08:11:36;11.43;;;8.75;;
17592;SDS011;8915;51.760;14.300;2022-08-19T08:14:03;11.40;;;8.98;;
17592;SDS011;8915;51.760;14.300;2022-08-19T08:16:30;13.70;;;9.75;;
17592;SDS011;8915;51.760;14.300;2022-08-19T08:18:57;12.90;;;9.95;;
17592;SDS011;8915;51.760;14.300;2022-08-19T08:21:24;12.02;;;9.43;;
17592;SDS011;8915;51.760;14.300;2022-08-19T08:23:51;12.90;;;10.05;;
17592;SDS011;8915;51.760;14.300;2022-08-19T08:26:21;12.02;;;9.23;;
17592;SDS011;8915;51.760;14.300;2022-08-19T08:28:48;12.77;;;9.10;;
17592;SDS011;8915;51.760;14.300;2022-08-19T08:31:14;11.25;;;9.10;;
17592;SDS011;8915;51.760;14.300;2022-08-19T08:33:41;13.52;;;9.20;;
17592;SDS011;8915;51.760;14.300;2022-08-19T08:36:08;11.23;;;8.80;;
17592;SDS011;8915;51.760;14.300;2022-08-19T08:38:35;12.63;;;9.43;;
17592;SDS011;8915;51.760;14.300;2022-08-19T08:41:04;14.77;;;9.52;;
17592;SDS011;8915;51.760;14.300;2022-08-19T08:43:37;10.73;;;8.52;;
17592;SDS011;8915;51.760;14.300;2022-08-19T08:46:10;12.85;;;8.68;;
17592;SDS011;8915;51.760;14.300;2022-08-19T08:48:44;10.57;;;8.23;;
17592;SDS011;8915;51.760;14.300;2022-08-19T08:51:16;13.85;;;9.20;;
17592;SDS011;8915;51.760;14.300;2022-08-19T08:53:46;11.65;;;8.45;;
17592;SDS011;8915;51.760;14.300;2022-08-19T08:56:16;11.45;;;8.25;;
17592;SDS011;8915;51.760;14.300;2022-08-19T08:58:46;10.38;;;8.60;;
17592;SDS011;8915;51.760;14.300;2022-08-19T09:01:17;12.10;;;8.98;;
17592;SDS011;8915;51.760;14.300;2022-08-19T09:03:44;10.35;;;8.25;;
17592;SDS011;8915;51.760;14.300;2022-08-19T09:06:12;12.82;;;9.02;;
17592;SDS011;8915;51.760;14.300;2022-08-19T09:08:49;11.50;;;8.98;;
17592;SDS011;8915;51.760;14.300;2022-08-19T09:11:33;12.27;;;9.05;;
17592;SDS011;8915;51.760;14.300;2022-08-19T09:14:15;14.32;;;9.82;;
17592;SDS011;8915;51.760;14.300;2022-08-19T09:16:49;12.20;;;8.77;;
17592;SDS011;8915;51.760;14.300;2022-08-19T09:19:16;12.32;;;9.63;;
17592;SDS011;8915;51.760;14.300;2022-08-19T09:21:43;15.05;;;9.95;;
17592;SDS011;8915;51.760;14.300;2022-08-19T09:24:10;11.48;;;8.77;;
17592;SDS011;8915;51.760;14.300;2022-08-19T09:26:37;12.68;;;9.38;;
17592;SDS011;8915;51.760;14.300;2022-08-19T09:29:03;11.40;;;9.10;;
17592;SDS011;8915;51.760;14.300;2022-08-19T09:31:32;11.68;;;9.07;;
17592;SDS011;8915;51.760;14.300;2022-08-19T09:33:58;12.65;;;9.73;;
17592;SDS011;8915;51.760;14.300;2022-08-19T09:36:26;10.70;;;9.25;;
17592;SDS011;8915;51.760;14.300;2022-08-19T09:38:57;11.30;;;9.43;;
17592;SDS011;8915;51.760;14.300;2022-08-19T09:41:25;11.35;;;9.30;;
17592;SDS011;8915;51.760;14.300;2022-08-19T09:43:52;12.63;;;9.00;;
17592;SDS011;8915;51.760;14.300;2022-08-19T09:46:21;12.02;;;9.52;;
17592;SDS011;8915;51.760;14.300;2022-08-19T09:48:51;12.63;;;8.52;;
17592;SDS011;8915;51.760;14.300;2022-08-19T09:51:19;9.88;;;8.52;;
17592;SDS011;8915;51.760;14.300;2022-08-19T09:53:47;11.52;;;9.07;;
17592;SDS011;8915;51.760;14.300;2022-08-19T09:56:17;10.98;;;9.23;;
17592;SDS011;8915;51.760;14.300;2022-08-19T09:58:44;11.00;;;8.98;;
17592;SDS011;8915;51.760;14.300;2022-08-19T10:01:15;10.95;;;8.43;;
17592;SDS011;8915;51.760;14.300;2022-08-19T10:03:46;10.48;;;8.70;;
17592;SDS011;8915;51.760;14.300;2022-08-19T10:06:16;12.82;;;9.13;;
17592;SDS011;8915;51.760;14.300;2022-08-19T10:08:43;11.65;;;8.85;;
17592;SDS011;8915;51.760;14.300;2022-08-19T10:11:11;11.20;;;8.68;;
17592;SDS011;8915;51.760;14.300;2022-08-19T10:13:39;11.77;;;9.43;;
17592;SDS011;8915;51.760;14.300;2022-08-19T10:16:07;11.90;;;9.00;;
17592;SDS011;8915;51.760;14.300;2022-08-19T10:18:38;10.63;;;8.88;;
17592;SDS011;8915;51.760;14.300;2022-08-19T10:21:08;10.68;;;9.00;;
17592;SDS011;8915;51.760;14.300;2022-08-19T10:23:38;12.52;;;9.38;;
17592;SDS011;8915;51.760;14.300;2022-08-19T10:26:09;14.65;;;10.05;;
17592;SDS011;8915;51.760;14.300;2022-08-19T10:28:40;12.63;;;8.50;;
17592;SDS011;8915;51.760;14.300;2022-08-19T10:31:07;13.32;;;9.30;;
17592;SDS011;8915;51.760;14.300;2022-08-19T10:33:35;16.15;;;10.77;;
17592;SDS011;8915;51.760;14.300;2022-08-19T10:36:03;12.15;;;9.75;;
17592;SDS011;8915;51.760;14.300;2022-08-19T10:38:32;10.85;;;9.25;;
17592;SDS011;8915;51.760;14.300;2022-08-19T10:41:07;12.48;;;9.38;;
17592;SDS011;8915;51.760;14.300;2022-08-19T10:43:34;12.98;;;10.38;;
17592;SDS011;8915;51.760;14.300;2022-08-19T10:46:03;11.52;;;9.40;;
17592;SDS011;8915;51.760;14.300;2022-08-19T10:48:30;12.05;;;9.32;;
17592;SDS011;8915;51.760;14.300;2022-08-19T10:50:57;11.02;;;9.60;;
17592;SDS011;8915;51.760;14.300;2022-08-19T10:53:41;13.55;;;10.75;;
17592;SDS011;8915;51.760;14.300;2022-08-19T10:56:09;13.15;;;10.30;;
17592;SDS011;8915;51.760;14.300;2022-08-19T10:58:53;12.13;;;10.48;;
17592;SDS011;8915;51.760;14.300;2022-08-19T11:01:22;15.20;;;10.98;;
17592;SDS011;8915;51.760;14.300;2022-08-19T11:03:49;13.55;;;10.43;;
17592;SDS011;8915;51.760;14.300;2022-08-19T11:06:15;13.75;;;10.27;;
17592;SDS011;8915;51.760;14.300;2022-08-19T11:08:42;11.77;;;10.52;;
17592;SDS011;8915;51.760;14.300;2022-08-19T11:11:11;13.80;;;11.00;;
17592;SDS011;8915;51.760;14.300;2022-08-19T11:13:39;16.70;;;11.40;;
17592;SDS011;8915;51.760;14.300;2022-08-19T11:16:08;15.73;;;11.15;;
17592;SDS011;8915;51.760;14.300;2022-08-19T11:18:39;15.10;;;10.50;;
17592;SDS011;8915;51.760;14.300;2022-08-19T11:21:09;14.45;;;10.30;;
17592;SDS011;8915;51.760;14.300;2022-08-19T11:23:38;15.00;;;11.07;;
17592;SDS011;8915;51.760;14.300;2022-08-19T11:26:04;13.30;;;10.73;;
17592;SDS011;8915;51.760;14.300;2022-08-19T11:28:33;14.35;;;11.07;;
17592;SDS011;8915;51.760;14.300;2022-08-19T11:30:59;13.60;;;11.07;;
17592;SDS011;8915;51.760;14.300;2022-08-19T11:33:27;13.93;;;11.70;;
17592;SDS011;8915;51.760;14.300;2022-08-19T11:35:54;13.60;;;10.65;;
17592;SDS011;8915;51.760;14.300;2022-08-19T11:38:20;12.40;;;10.93;;
17592;SDS011;8915;51.760;14.300;2022-08-19T11:40:53;15.02;;;10.95;;
17592;SDS011;8915;51.760;14.300;2022-08-19T11:43:20;13.13;;;10.32;;
17592;SDS011;8915;51.760;14.300;2022-08-19T11:45:48;12.75;;;10.13;;
17592;SDS011;8915;51.760;14.300;2022-08-19T11:48:15;12.95;;;10.40;;
17592;SDS011;8915;51.760;14.300;2022-08-19T11:50:41;13.85;;;10.52;;
17592;SDS011;8915;51.760;14.300;2022-08-19T11:53:08;12.80;;;10.75;;
17592;SDS011;8915;51.760;14.300;2022-08-19T11:55:36;15.95;;;10.40;;
17592;SDS011;8915;51.760;14.300;2022-08-19T11:58:04;12.13;;;10.10;;
17592;SDS011;8915;51.760;14.300;2022-08-19T12:00:31;13.90;;;11.30;;
17592;SDS011;8915;51.760;14.300;2022-08-19T12:03:00;11.68;;;10.48;;
17592;SDS011;8915;51.760;14.300;2022-08-19T12:05:26;14.95;;;10.95;;
17592;SDS011;8915;51.760;14.300;2022-08-19T12:07:53;14.23;;;10.77;;
17592;SDS011;8915;51.760;14.300;2022-08-19T12:10:21;14.95;;;11.15;;
17592;SDS011;8915;51.760;14.300;2022-08-19T12:12:48;11.48;;;10.27;;
17592;SDS011;8915;51.760;14.300;2022-08-19T12:15:15;14.10;;;10.93;;
17592;SDS011;8915;51.760;14.300;2022-08-19T12:17:42;13.15;;;10.05;;
17592;SDS011;8915;51.760;14.300;2022-08-19T12:20:10;17.27;;;10.80;;
17592;SDS011;8915;51.760;14.300;2022-08-19T12:22:41;12.80;;;10.77;;
17592;SDS011;8915;51.760;14.300;2022-08-19T12:25:08;12.38;;;10.75;;
17592;SDS011;8915;51.760;14.300;2022-08-19T12:27:35;13.52;;;10.57;;
17592;SDS011;8915;51.760;14.300;2022-08-19T12:30:02;18.33;;;11.05;;
17592;SDS011;8915;51.760;14.300;2022-08-19T12:32:29;17.25;;;11.38;;
17592;SDS011;8915;51.760;14.300;2022-08-19T12:34:55;13.73;;;11.30;;
17592;SDS011;8915;51.760;14.300;2022-08-19T12:37:23;14.82;;;10.13;;
17592;SDS011;8915;51.760;14.300;2022-08-19T12:39:50;12.38;;;10.00;;
17592;SDS011;8915;51.760;14.300;2022-08-19T12:42:16;14.30;;;11.25;;
17592;SDS011;8915;51.760;14.300;2022-08-19T12:44:43;12.85;;;10.32;;
17592;SDS011;8915;51.760;14.300;2022-08-19T12:47:11;16.77;;;10.55;;
17592;SDS011;8915;51.760;14.300;2022-08-19T12:49:39;12.05;;;9.88;;
17592;SDS011;8915;51.760;14.300;2022-08-19T12:52:07;10.45;;;8.38;;
17592;SDS011;8915;51.760;14.300;2022-08-19T12:54:37;11.10;;;8.77;;
17592;SDS011;8915;51.760;14.300;2022-08-19T12:57:04;10.88;;;8.70;;
17592;SDS011;8915;51.760;14.300;2022-08-19T12:59:32;12.25;;;9.35;;
17592;SDS011;8915;51.760;14.300;2022-08-19T13:01:59;13.25;;;9.75;;
17592;SDS011;8915;51.760;14.300;2022-08-19T13:04:26;11.82;;;9.90;;
17592;SDS011;8915;51.760;14.300;2022-08-19T13:06:52;15.05;;;10.45;;
17592;SDS011;8915;51.760;14.300;2022-08-19T13:09:19;15.60;;;11.73;;
17592;SDS011;8915;51.760;14.300;2022-08-19T13:11:46;14.05;;;10.23;;
17592;SDS011;8915;51.760;14.300;2022-08-19T13:14:13;14.60;;;11.30;;
17592;SDS011;8915;51.760;14.300;2022-08-19T13:16:39;16.83;;;11.95;;
17592;SDS011;8915;51.760;14.300;2022-08-19T13:19:06;16.65;;;11.85;;
17592;SDS011;8915;51.760;14.300;2022-08-19T13:21:33;18.75;;;12.65;;
17592;SDS011;8915;51.760;14.300;2022-08-19T13:23:59;17.33;;;12.38;;
17592;SDS011;8915;51.760;14.300;2022-08-19T13:26:26;17.38;;;12.70;;
17592;SDS011;8915;51.760;14.300;2022-08-19T13:28:54;16.38;;;11.52;;
17592;SDS011;8915;51.760;14.300;2022-08-19T13:31:39;17.77;;;12.38;;
17592;SDS011;8915;51.760;14.300;2022-08-19T13:34:26;16.95;;;12.48;;
17592;SDS011;8915;51.760;14.300;2022-08-19T13:36:55;18.00;;;13.15;;
17592;SDS011;8915;51.760;14.300;2022-08-19T13:39:22;19.25;;;13.40;;
17592;SDS011;8915;51.760;14.300;2022-08-19T13:41:49;17.83;;;13.50;;
17592;SDS011;8915;51.760;14.300;2022-08-19T13:44:17;16.92;;;12.25;;
17592;SDS011;8915;51.760;14.300;2022-08-19T13:46:44;14.88;;;11.90;;
17592;SDS011;8915;51.760;14.300;2022-08-19T13:49:11;17.38;;;12.10;;
17592;SDS011;8915;51.760;14.300;2022-08-19T13:51:38;17.95;;;13.65;;
17592;SDS011;8915;51.760;14.300;2022-08-19T13:54:05;17.35;;;12.27;;
17592;SDS011;8915;51.760;14.300;2022-08-19T13:56:32;18.05;;;12.32;;
17592;SDS011;8915;51.760;14.300;2022-08-19T13:58:58;16.80;;;12.50;;
17592;SDS011;8915;51.760;14.300;2022-08-19T14:01:26;18.27;;;13.30;;
17592;SDS011;8915;51.760;14.300;2022-08-19T14:03:53;19.10;;;12.30;;
17592;SDS011;8915;51.760;14.300;2022-08-19T14:06:19;17.80;;;12.32;;
17592;SDS011;8915;51.760;14.300;2022-08-19T14:08:46;19.63;;;13.20;;
17592;SDS011;8915;51.760;14.300;2022-08-19T14:11:12;18.70;;;12.52;;
17592;SDS011;8915;51.760;14.300;2022-08-19T14:13:39;17.77;;;12.52;;
17592;SDS011;8915;51.760;14.300;2022-08-19T14:16:06;19.13;;;13.15;;
17592;SDS011;8915;51.760;14.300;2022-08-19T14:18:35;18.58;;;13.20;;
17592;SDS011;8915;51.760;14.300;2022-08-19T14:21:02;21.45;;;13.40;;
17592;SDS011;8915;51.760;14.300;2022-08-19T14:23:30;18.05;;;12.10;;
17592;SDS011;8915;51.760;14.300;2022-08-19T14:26:02;19.42;;;12.40;;
17592;SDS011;8915;51.760;14.300;2022-08-19T14:28:29;19.67;;;12.75;;
17592;SDS011;8915;51.760;14.300;2022-08-19T14:30:56;21.25;;;12.68;;
17592;SDS011;8915;51.760;14.300;2022-08-19T14:33:22;22.17;;;12.88;;
17592;SDS011;8915;51.760;14.300;2022-08-19T14:35:50;20.60;;;13.32;;
17592;SDS011;8915;51.760;14.300;2022-08-19T14:38:16;22.23;;;12.55;;
17592;SDS011;8915;51.760;14.300;2022-08-19T14:40:44;20.55;;;12.52;;